Evans, CO (80620)

10:51 PM MDT on August 23, 2016 (GMT -0600)
Ross Hall - UNC | | Change Station

Elev 4790 ft 40.40 °N, 104.70 °W | Updated 45 seconds ago

Partly Cloudy
Partly Cloudy
72.8 °F
Feels Like 77 °F
N
10.0
Wind Variable Wind from SW
Gusts 13.0 mph

Today
High -- | Low -- °F
--% Chance of Precip.
Yesterday
High -- | Low -- °F
Precip. -- in
Pressure 30.12 in
Visibility 10.0 miles
Clouds Few 12000 ft
Heat Index 77 °F
Dew Point 46 °F
Humidity 38%
Rainfall in
Snow Depth Not available.
6:18 AM 7:43 PM
Waning Gibbous, 61% visible
METAR KGXY 240435Z 25011KT 10SM FEW120 23/06 A3012 RMK AO1
Pressure 30.12 in
Visibility 10.0 miles
Clouds Few 12000 ft
Heat Index 77 °F
Dew Point 46 °F
Humidity 38%
Rainfall in
Snow Depth Not available.
6:18 AM 7:43 PM
Waning Gibbous, 61% visible
METAR KGXY 240435Z 25011KT 10SM FEW120 23/06 A3012 RMK AO1

10-Day Weather Forecast

Almanac

Astronomy

Aug. 23, 2016 Rise Set
Actual Time
Civil Twilight
Nautical Twilight
Astronomical Twilight
Moon
Length of Visible Light
Length of Day
Tomorrow will be .
, % of the Moon is Illuminated

Today's Extremes

State Highs State Lows

Community

WunderPhotos

Upload Photos

1,934,554 photos uploaded!

WunderBlog® & News

Nearby

Air Quality

  Air Quality AQ Index Pollutant
Not available.

Snow Depth

Station Depth Elevation

Earthquake Activity

City Distance Mag. Time & Date
Minimum magnitude displayed is 2.5.

Coastal Water Temperatures

Place Temperature

Stations

Nearby Weather Stations

Station Location Temp. Windchill Dew Point Humidity Wind Precip. Elev Updated Type
                   

Watches & Warnings

There are currently no watches in effect.